Time;durP1;ratioP1;P1;durP2;ratioP2;P2;SDS_P1;SDS_P2;PMS_P1;PMS_P2;Temp;Humidity;BMP_temperature;BMP_pressure;BME280_temperature;BME280_humidity;BME280_pressure;Samples;Min_cycle;Max_cycle;Signal;HPM_P1;HPM_P2
2023/07/14 00:00:26;;;;;;;0.87;0.67;;;;;;;;;;5041926;27;88124;-52
2023/07/14 00:02:55;;;;;;;1.13;0.70;;;;;;;;;;5042642;27;88806;-52
2023/07/14 00:05:26;;;;;;;0.87;0.47;;;;;;;;;;5041873;27;87656;-52
2023/07/14 00:07:55;;;;;;;2.47;0.67;;;;;;;;;;5042008;27;87426;-52
2023/07/14 00:10:25;;;;;;;2.00;0.77;;;;;;;;;;5041705;27;88185;-52
2023/07/14 00:12:54;;;;;;;0.87;0.70;;;;;;;;;;5043099;27;87802;-52
2023/07/14 00:15:22;;;;;;;0.37;0.37;;;;;;;;;;5041829;27;87572;-52
2023/07/14 00:17:52;;;;;;;1.47;0.60;;;;;;;;;;5053231;27;89605;-56
2023/07/14 00:20:22;;;;;;;1.20;0.60;;;;;;;;;;5061247;27;89593;-52
2023/07/14 00:22:51;;;;;;;0.53;0.47;;;;;;;;;;5060332;27;88737;-52
2023/07/14 00:25:20;;;;;;;0.97;0.50;;;;;;;;;;5062062;27;87655;-52
2023/07/14 00:27:50;;;;;;;0.90;0.50;;;;;;;;;;5059918;27;88745;-52
2023/07/14 00:30:19;;;;;;;0.30;0.30;;;;;;;;;;5061932;27;89159;-52
2023/07/14 00:32:47;;;;;;;0.83;0.77;;;;;;;;;;5059980;27;88127;-52
2023/07/14 00:35:22;;;;;;;0.63;0.50;;;;;;;;;;5061721;27;87693;-52
2023/07/14 00:37:51;;;;;;;1.80;0.73;;;;;;;;;;5061556;27;89050;-52
2023/07/14 00:40:20;;;;;;;0.63;0.50;;;;;;;;;;5061547;27;87566;-52
2023/07/14 00:42:51;;;;;;;0.30;0.30;;;;;;;;;;5059286;27;88822;-52
2023/07/14 00:45:20;;;;;;;0.57;0.50;;;;;;;;;;5061431;27;87865;-52
2023/07/14 00:47:52;;;;;;;0.50;0.50;;;;;;;;;;5060364;27;89405;-52
2023/07/14 00:50:23;;;;;;;1.47;0.60;;;;;;;;;;5061530;27;88952;-52
2023/07/14 00:52:51;;;;;;;0.50;0.50;;;;;;;;;;5060828;27;88875;-52
2023/07/14 00:55:31;;;;;;;1.07;0.73;;;;;;;;;;5060993;27;87673;-52
2023/07/14 00:58:00;;;;;;;0.40;0.40;;;;;;;;;;5054655;27;89895;-52
2023/07/14 01:00:30;;;;;;;0.83;0.63;;;;;;;;;;5041183;27;88121;-52
2023/07/14 01:02:58;;;;;;;0.50;0.50;;;;;;;;;;5047908;27;88316;-52
2023/07/14 01:05:27;;;;;;;0.60;0.60;;;;;;;;;;5059575;27;87757;-52
2023/07/14 01:07:55;;;;;;;0.50;0.50;;;;;;;;;;5058588;27;88198;-52
2023/07/14 01:10:25;;;;;;;0.87;0.63;;;;;;;;;;5041251;28;90106;-52
2023/07/14 01:12:54;;;;;;;1.47;0.80;;;;;;;;;;5041055;27;89931;-52
2023/07/14 01:15:24;;;;;;;2.13;0.80;;;;;;;;;;5042148;27;87636;-52
2023/07/14 01:17:52;;;;;;;1.63;0.90;;;;;;;;;;5041504;27;88747;-52
2023/07/14 01:20:21;;;;;;;0.50;0.50;;;;;;;;;;5060400;27;88287;-52
2023/07/14 01:22:53;;;;;;;0.80;0.43;;;;;;;;;;5060106;27;89094;-52
2023/07/14 01:25:24;;;;;;;0.30;0.30;;;;;;;;;;5056796;27;87668;-52
2023/07/14 01:27:54;;;;;;;0.80;0.50;;;;;;;;;;5024065;28;88664;-52
2023/07/14 01:30:23;;;;;;;0.77;0.50;;;;;;;;;;5041038;27;88054;-52
2023/07/14 01:32:51;;;;;;;0.60;0.47;;;;;;;;;;5056518;27;88822;-52
2023/07/14 01:35:20;;;;;;;0.70;0.53;;;;;;;;;;5062673;27;87892;-52
2023/07/14 01:37:49;;;;;;;1.17;0.50;;;;;;;;;;5064642;27;89467;-52
2023/07/14 01:40:18;;;;;;;0.77;0.50;;;;;;;;;;5064020;27;88253;-52
2023/07/14 01:42:48;;;;;;;0.50;0.50;;;;;;;;;;5063747;27;87632;-52
2023/07/14 01:45:18;;;;;;;1.13;0.40;;;;;;;;;;5064631;27;87633;-52
2023/07/14 01:47:47;;;;;;;0.83;0.73;;;;;;;;;;5062779;27;88734;-52
2023/07/14 01:50:16;;;;;;;0.60;0.40;;;;;;;;;;5063651;27;88342;-52
2023/07/14 01:52:44;;;;;;;1.27;0.80;;;;;;;;;;5063946;27;88548;-52
2023/07/14 01:55:14;;;;;;;0.50;0.47;;;;;;;;;;5064751;27;87718;-52
2023/07/14 01:57:43;;;;;;;0.40;0.40;;;;;;;;;;5049379;27;88520;-52
2023/07/14 02:00:12;;;;;;;0.50;0.50;;;;;;;;;;5049221;27;90149;-52
2023/07/14 02:02:41;;;;;;;1.63;0.50;;;;;;;;;;5064093;27;89803;-52
2023/07/14 02:05:15;;;;;;;0.77;0.60;;;;;;;;;;5059372;27;87589;-52
2023/07/14 02:07:43;;;;;;;0.50;0.37;;;;;;;;;;5044442;27;89688;-52
2023/07/14 02:10:13;;;;;;;0.70;0.47;;;;;;;;;;5063846;27;88774;-52
2023/07/14 02:12:46;;;;;;;1.20;0.67;;;;;;;;;;5064158;27;88165;-52
2023/07/14 02:15:18;;;;;;;0.90;0.70;;;;;;;;;;5059112;27;87561;-52
2023/07/14 02:17:47;;;;;;;0.60;0.60;;;;;;;;;;5044616;27;89976;-52
2023/07/14 02:20:17;;;;;;;1.43;0.47;;;;;;;;;;5043668;27;87863;-52
2023/07/14 02:22:45;;;;;;;1.00;0.80;;;;;;;;;;5063718;27;89016;-52
2023/07/14 02:25:15;;;;;;;2.03;0.97;;;;;;;;;;5063723;27;87793;-52
2023/07/14 02:27:43;;;;;;;2.00;1.10;;;;;;;;;;5061751;27;88690;-52
2023/07/14 02:30:13;;;;;;;1.07;0.80;;;;;;;;;;5044883;27;88150;-52
2023/07/14 02:32:44;;;;;;;1.07;0.97;;;;;;;;;;5059668;27;88531;-52
2023/07/14 02:35:14;;;;;;;1.83;1.00;;;;;;;;;;5043496;27;87346;-52
2023/07/14 02:38:03;;;;;;;1.87;1.17;;;;;;;;;;5039135;27;88539;-52
2023/07/14 02:40:36;;;;;;;1.50;1.20;;;;;;;;;;5020009;28;88053;-52
2023/07/14 02:43:05;;;;;;;1.93;1.20;;;;;;;;;;5023596;27;88065;-52
2023/07/14 02:45:34;;;;;;;1.40;1.00;;;;;;;;;;5043270;27;87632;-52
2023/07/14 02:48:02;;;;;;;1.50;1.10;;;;;;;;;;5060347;27;88280;-53
2023/07/14 02:50:32;;;;;;;2.13;1.40;;;;;;;;;;5059205;27;89928;-52
2023/07/14 02:53:01;;;;;;;3.53;2.10;;;;;;;;;;5059799;27;89159;-54
2023/07/14 02:55:29;;;;;;;5.13;2.20;;;;;;;;;;5060627;27;87618;-52
2023/07/14 02:57:58;;;;;;;2.43;2.07;;;;;;;;;;5059791;27;89760;-53
2023/07/14 03:00:26;;;;;;;4.37;2.30;;;;;;;;;;5057958;27;88098;-52
2023/07/14 03:02:54;;;;;;;4.63;2.53;;;;;;;;;;5060546;27;87526;-52
2023/07/14 03:05:23;;;;;;;2.47;2.20;;;;;;;;;;5060409;27;87710;-52
2023/07/14 03:07:53;;;;;;;4.10;2.70;;;;;;;;;;5057953;27;90054;-52
2023/07/14 03:10:22;;;;;;;2.63;2.20;;;;;;;;;;5042619;27;89083;-52
2023/07/14 03:12:50;;;;;;;4.10;2.67;;;;;;;;;;5048771;27;88991;-52
2023/07/14 03:15:18;;;;;;;4.20;2.70;;;;;;;;;;5051719;27;88124;-52
2023/07/14 03:17:47;;;;;;;3.33;2.60;;;;;;;;;;5039658;27;88584;-52
2023/07/14 03:20:15;;;;;;;4.00;2.83;;;;;;;;;;5039010;27;89137;-52
2023/07/14 03:22:44;;;;;;;6.00;3.27;;;;;;;;;;5040508;27;87754;-52
2023/07/14 03:25:14;;;;;;;5.83;3.13;;;;;;;;;;5039229;27;87654;-52
2023/07/14 03:27:43;;;;;;;4.97;2.90;;;;;;;;;;5040297;27;89837;-52
2023/07/14 03:30:12;;;;;;;5.57;3.60;;;;;;;;;;5045190;27;87584;-52
2023/07/14 03:32:40;;;;;;;4.90;3.30;;;;;;;;;;5058540;27;87893;-52
2023/07/14 03:35:09;;;;;;;3.63;3.13;;;;;;;;;;5019581;28;87702;-53
2023/07/14 03:37:38;;;;;;;5.70;3.77;;;;;;;;;;5018879;28;88770;-52
2023/07/14 03:40:07;;;;;;;4.03;3.00;;;;;;;;;;5037410;27;88977;-52
2023/07/14 03:42:38;;;;;;;3.70;2.87;;;;;;;;;;5038645;28;88818;-52
2023/07/14 03:45:07;;;;;;;5.03;3.20;;;;;;;;;;5040545;27;87615;-52
2023/07/14 03:47:36;;;;;;;5.27;3.40;;;;;;;;;;5039051;27;88540;-52
2023/07/14 03:50:05;;;;;;;4.07;2.83;;;;;;;;;;5037382;27;88040;-52
2023/07/14 03:52:33;;;;;;;6.33;3.23;;;;;;;;;;5039003;27;88923;-52
2023/07/14 03:55:01;;;;;;;3.73;2.93;;;;;;;;;;5051773;27;87655;-52
2023/07/14 03:57:31;;;;;;;5.13;3.87;;;;;;;;;;5059338;27;89582;-52
2023/07/14 04:00:11;;;;;;;5.67;3.20;;;;;;;;;;5047429;27;89344;-52
2023/07/14 04:02:40;;;;;;;4.50;3.20;;;;;;;;;;5038898;27;88960;-52
2023/07/14 04:05:08;;;;;;;4.67;3.17;;;;;;;;;;5046435;27;88595;-52
2023/07/14 04:07:37;;;;;;;4.20;2.93;;;;;;;;;;5041952;27;87915;-52
2023/07/14 04:10:05;;;;;;;4.77;2.73;;;;;;;;;;5041584;27;88074;-52
2023/07/14 04:12:34;;;;;;;6.10;3.20;;;;;;;;;;5041587;27;87805;-52
2023/07/14 04:15:04;;;;;;;6.33;2.90;;;;;;;;;;5041993;27;87749;-52
2023/07/14 04:17:36;;;;;;;3.63;2.67;;;;;;;;;;5041635;27;89680;-52
2023/07/14 04:20:05;;;;;;;3.30;2.47;;;;;;;;;;5041463;27;88056;-52
2023/07/14 04:22:34;;;;;;;7.47;3.03;;;;;;;;;;5051301;27;87815;-52
2023/07/14 04:25:02;;;;;;;4.13;2.83;;;;;;;;;;5060109;27;87433;-52
2023/07/14 04:27:33;;;;;;;3.20;2.13;;;;;;;;;;5061521;27;88745;-53
2023/07/14 04:30:02;;;;;;;3.83;2.47;;;;;;;;;;5053818;27;90052;-52
2023/07/14 04:32:32;;;;;;;2.70;2.00;;;;;;;;;;5041264;27;89710;-52
2023/07/14 04:35:01;;;;;;;5.90;2.60;;;;;;;;;;5044880;27;87489;-52
2023/07/14 04:37:29;;;;;;;3.73;2.20;;;;;;;;;;5061170;27;89802;-52
2023/07/14 04:39:58;;;;;;;2.30;1.80;;;;;;;;;;5060868;27;89293;-52
2023/07/14 04:42:27;;;;;;;3.77;2.77;;;;;;;;;;5061190;27;87767;-52
2023/07/14 04:44:55;;;;;;;3.60;2.00;;;;;;;;;;5057311;27;87680;-52
2023/07/14 04:47:24;;;;;;;2.90;1.67;;;;;;;;;;5041238;27;88722;-52
2023/07/14 04:49:53;;;;;;;3.13;2.03;;;;;;;;;;5040753;27;88571;-52
2023/07/14 04:52:22;;;;;;;3.90;2.20;;;;;;;;;;5041249;27;88001;-52
2023/07/14 04:54:51;;;;;;;4.40;2.00;;;;;;;;;;5041448;27;87846;-52
2023/07/14 04:57:19;;;;;;;1.57;1.47;;;;;;;;;;5041070;27;88888;-52
2023/07/14 04:59:47;;;;;;;3.13;1.70;;;;;;;;;;5041071;27;88274;-52
2023/07/14 05:02:16;;;;;;;3.70;1.53;;;;;;;;;;5060557;27;88907;-52
2023/07/14 05:04:45;;;;;;;3.33;1.87;;;;;;;;;;5061613;27;87668;-52
2023/07/14 05:07:29;;;;;;;2.63;2.10;;;;;;;;;;5061194;27;88604;-52
2023/07/14 05:09:58;;;;;;;1.50;1.30;;;;;;;;;;5054336;27;89393;-52
2023/07/14 05:12:26;;;;;;;2.63;1.70;;;;;;;;;;5041043;27;87913;-52
2023/07/14 05:14:54;;;;;;;2.00;1.60;;;;;;;;;;5040794;27;87643;-52
2023/07/14 05:17:23;;;;;;;1.87;1.67;;;;;;;;;;5040988;27;89916;-52
2023/07/14 05:19:51;;;;;;;3.23;1.73;;;;;;;;;;5052675;27;89009;-52
2023/07/14 05:22:20;;;;;;;3.40;1.57;;;;;;;;;;5051549;27;89964;-52
2023/07/14 05:24:49;;;;;;;1.83;1.30;;;;;;;;;;5046600;27;87662;-52
2023/07/14 05:27:18;;;;;;;2.70;1.63;;;;;;;;;;5051918;27;89908;-52
2023/07/14 05:29:47;;;;;;;2.07;1.50;;;;;;;;;;5039183;28;88103;-52
2023/07/14 05:32:15;;;;;;;1.70;1.10;;;;;;;;;;5052539;27;87785;-52
2023/07/14 05:34:43;;;;;;;1.97;1.20;;;;;;;;;;5041525;27;87503;-52
2023/07/14 05:37:12;;;;;;;1.50;1.37;;;;;;;;;;5039876;27;89550;-52
2023/07/14 05:39:40;;;;;;;2.83;1.60;;;;;;;;;;5039307;27;88955;-52
2023/07/14 05:42:10;;;;;;;3.17;1.07;;;;;;;;;;5040108;27;87422;-52
2023/07/14 05:44:38;;;;;;;2.17;1.30;;;;;;;;;;5039234;27;87942;-52
2023/07/14 05:47:07;;;;;;;1.67;1.20;;;;;;;;;;5039141;27;88718;-52
2023/07/14 05:49:35;;;;;;;3.70;1.23;;;;;;;;;;5042340;27;88256;-52
2023/07/14 05:52:04;;;;;;;2.33;1.17;;;;;;;;;;5039300;27;89157;-52
2023/07/14 05:54:32;;;;;;;4.50;1.43;;;;;;;;;;5040543;27;87642;-52
2023/07/14 05:57:00;;;;;;;1.70;1.50;;;;;;;;;;5039593;27;89749;-52
2023/07/14 05:59:30;;;;;;;1.80;1.13;;;;;;;;;;5040274;27;89312;-52
2023/07/14 06:01:59;;;;;;;1.20;1.10;;;;;;;;;;5039600;27;87718;-52
2023/07/14 06:04:27;;;;;;;3.23;1.30;;;;;;;;;;5040413;27;87654;-52
2023/07/14 06:06:55;;;;;;;3.83;1.43;;;;;;;;;;5040961;27;89733;-53
2023/07/14 06:09:24;;;;;;;2.17;1.00;;;;;;;;;;5050486;27;90114;-52
2023/07/14 06:11:52;;;;;;;1.40;1.23;;;;;;;;;;5041969;27;90094;-52
2023/07/14 06:14:20;;;;;;;1.50;1.30;;;;;;;;;;5054613;27;87689;-52
2023/07/14 06:16:54;;;;;;;2.17;1.00;;;;;;;;;;5063404;27;89805;-52
2023/07/14 06:19:22;;;;;;;1.57;0.93;;;;;;;;;;5055977;27;88365;-53
2023/07/14 06:21:50;;;;;;;1.53;0.80;;;;;;;;;;5046204;27;89732;-52
2023/07/14 06:24:19;;;;;;;3.00;1.27;;;;;;;;;;5045510;27;87704;-52
2023/07/14 06:26:47;;;;;;;1.67;1.10;;;;;;;;;;5051536;27;87417;-53
2023/07/14 06:29:16;;;;;;;1.97;0.70;;;;;;;;;;5061801;27;87379;-52
2023/07/14 06:31:44;;;;;;;1.80;1.07;;;;;;;;;;5063922;27;87286;-52
2023/07/14 06:34:14;;;;;;;3.20;1.33;;;;;;;;;;5063598;27;87825;-52
2023/07/14 06:36:42;;;;;;;1.47;1.10;;;;;;;;;;5063345;27;87252;-52
2023/07/14 06:39:12;;;;;;;0.93;0.90;;;;;;;;;;5063856;27;88111;-52
2023/07/14 06:41:40;;;;;;;1.33;1.20;;;;;;;;;;5063291;27;88789;-52
2023/07/14 06:44:08;;;;;;;1.57;1.07;;;;;;;;;;5063755;27;87617;-52
2023/07/14 06:46:53;;;;;;;1.20;0.80;;;;;;;;;;5063493;27;88580;-52
2023/07/14 06:49:23;;;;;;;2.77;1.27;;;;;;;;;;5063170;27;89334;-52
2023/07/14 06:51:56;;;;;;;1.50;1.20;;;;;;;;;;5063661;27;87974;-54
2023/07/14 06:54:24;;;;;;;2.37;1.27;;;;;;;;;;5063915;27;87588;-53
2023/07/14 06:56:53;;;;;;;1.60;1.20;;;;;;;;;;5063254;27;89928;-53
2023/07/14 06:59:21;;;;;;;3.80;1.27;;;;;;;;;;5062935;27;90018;-52
2023/07/14 07:01:49;;;;;;;1.70;1.00;;;;;;;;;;5063155;27;88576;-52
2023/07/14 07:04:18;;;;;;;4.53;1.30;;;;;;;;;;5063576;27;87623;-53
2023/07/14 07:06:48;;;;;;;1.03;0.80;;;;;;;;;;5063170;27;89642;-52
2023/07/14 07:09:16;;;;;;;2.10;1.00;;;;;;;;;;5063352;27;89523;-52
2023/07/14 07:11:44;;;;;;;1.03;0.93;;;;;;;;;;5063293;27;87762;-53
2023/07/14 07:14:13;;;;;;;1.50;0.80;;;;;;;;;;5063312;27;87641;-53
2023/07/14 07:16:41;;;;;;;3.27;1.10;;;;;;;;;;5063322;27;89744;-53
2023/07/14 07:19:09;;;;;;;0.90;0.80;;;;;;;;;;5062815;27;89164;-52
2023/07/14 07:21:38;;;;;;;3.03;1.20;;;;;;;;;;5063037;27;88879;-52
2023/07/14 07:24:09;;;;;;;1.43;1.10;;;;;;;;;;5061800;27;87980;-53
2023/07/14 07:26:37;;;;;;;3.17;1.10;;;;;;;;;;5062702;27;90070;-52
2023/07/14 07:29:09;;;;;;;2.27;1.20;;;;;;;;;;5062973;27;89141;-52
2023/07/14 07:31:37;;;;;;;1.67;1.10;;;;;;;;;;5062831;27;88908;-52
2023/07/14 07:34:05;;;;;;;1.50;1.00;;;;;;;;;;5062887;27;87706;-52
2023/07/14 07:36:34;;;;;;;1.10;0.90;;;;;;;;;;5062688;27;88404;-52
2023/07/14 07:39:03;;;;;;;1.90;1.00;;;;;;;;;;5062578;27;89074;-52
2023/07/14 07:41:32;;;;;;;3.10;1.07;;;;;;;;;;5062355;27;87847;-52
2023/07/14 07:44:02;;;;;;;1.47;0.93;;;;;;;;;;5062746;27;87640;-52
2023/07/14 07:46:32;;;;;;;1.13;0.90;;;;;;;;;;5062573;27;87374;-52
2023/07/14 07:49:01;;;;;;;2.23;1.13;;;;;;;;;;5061165;27;90041;-53
2023/07/14 07:51:29;;;;;;;2.37;1.40;;;;;;;;;;5062378;27;88719;-52
2023/07/14 07:53:58;;;;;;;2.50;1.20;;;;;;;;;;5062703;27;87289;-52
2023/07/14 07:56:26;;;;;;;2.03;0.80;;;;;;;;;;5062301;27;89297;-52
2023/07/14 07:58:56;;;;;;;0.90;0.87;;;;;;;;;;5062463;27;89280;-52
2023/07/14 08:01:25;;;;;;;1.77;0.90;;;;;;;;;;5062401;27;87851;-52
2023/07/14 08:03:53;;;;;;;1.80;0.97;;;;;;;;;;5062283;27;87644;-52
2023/07/14 08:06:24;;;;;;;1.87;0.87;;;;;;;;;;5062543;27;88502;-52
2023/07/14 08:08:52;;;;;;;0.73;0.73;;;;;;;;;;5062355;27;89051;-52
2023/07/14 08:11:21;;;;;;;1.57;0.87;;;;;;;;;;5062340;27;87805;-52
2023/07/14 08:13:49;;;;;;;2.27;1.00;;;;;;;;;;5061955;27;87798;-52
2023/07/14 08:16:19;;;;;;;4.40;0.90;;;;;;;;;;5062131;27;89878;-52
2023/07/14 08:18:47;;;;;;;1.77;0.90;;;;;;;;;;5061692;27;88054;-52
2023/07/14 08:21:16;;;;;;;5.20;1.03;;;;;;;;;;5062036;27;88894;-52
2023/07/14 08:23:44;;;;;;;1.63;0.93;;;;;;;;;;5062242;27;87510;-52
2023/07/14 08:26:13;;;;;;;1.13;0.97;;;;;;;;;;5061921;27;88713;-52
2023/07/14 08:28:42;;;;;;;1.23;0.80;;;;;;;;;;5062165;27;89196;-52
2023/07/14 08:31:11;;;;;;;1.53;1.00;;;;;;;;;;5061895;27;87822;-52
2023/07/14 08:33:43;;;;;;;1.00;0.80;;;;;;;;;;5061855;27;87615;-52
2023/07/14 08:36:11;;;;;;;1.73;0.60;;;;;;;;;;5061773;27;89801;-52
2023/07/14 08:38:40;;;;;;;0.93;0.93;;;;;;;;;;5061352;27;88967;-52
2023/07/14 08:41:15;;;;;;;1.50;1.00;;;;;;;;;;5062457;27;89665;-53
2023/07/14 08:43:46;;;;;;;1.50;0.87;;;;;;;;;;5061921;27;87688;-52
2023/07/14 08:46:16;;;;;;;1.50;0.80;;;;;;;;;;5061932;27;90146;-52
2023/07/14 08:48:48;;;;;;;1.40;1.10;;;;;;;;;;5061462;27;88187;-52
2023/07/14 08:51:18;;;;;;;1.43;0.80;;;;;;;;;;5061795;27;87797;-53
2023/07/14 08:53:49;;;;;;;1.37;1.10;;;;;;;;;;5062010;27;87632;-52
2023/07/14 08:56:18;;;;;;;1.40;1.00;;;;;;;;;;5061491;27;89644;-52
2023/07/14 08:58:47;;;;;;;1.33;0.70;;;;;;;;;;5061509;27;88120;-52
2023/07/14 09:01:20;;;;;;;1.00;0.90;;;;;;;;;;5061227;27;87812;-52
2023/07/14 09:03:52;;;;;;;0.93;0.80;;;;;;;;;;5061335;27;87966;-52
2023/07/14 09:06:24;;;;;;;1.07;0.80;;;;;;;;;;5061508;27;88994;-53
2023/07/14 09:08:53;;;;;;;1.90;0.83;;;;;;;;;;5061369;27;89436;-52
2023/07/14 09:11:34;;;;;;;2.10;0.80;;;;;;;;;;5061427;27;89001;-52
2023/07/14 09:14:04;;;;;;;1.40;0.70;;;;;;;;;;5061831;27;87417;-52
2023/07/14 09:16:33;;;;;;;1.73;1.00;;;;;;;;;;5061204;27;88603;-52
2023/07/14 09:19:08;;;;;;;1.00;0.80;;;;;;;;;;5060928;27;88060;-52
2023/07/14 09:21:39;;;;;;;1.57;0.80;;;;;;;;;;5061501;27;87860;-53
2023/07/14 09:24:14;;;;;;;1.10;0.90;;;;;;;;;;5061327;27;87601;-52
2023/07/14 09:26:43;;;;;;;9.57;1.20;;;;;;;;;;5061106;27;89650;-52
2023/07/14 09:29:13;;;;;;;2.63;1.00;;;;;;;;;;5060583;27;88227;-52
2023/07/14 09:31:43;;;;;;;2.00;0.70;;;;;;;;;;5060749;27;88800;-52
2023/07/14 09:34:14;;;;;;;1.17;0.90;;;;;;;;;;5061509;27;87553;-52
2023/07/14 09:36:42;;;;;;;1.23;0.80;;;;;;;;;;5061145;27;89731;-52
2023/07/14 09:39:13;;;;;;;0.63;0.63;;;;;;;;;;5060858;27;88137;-52
2023/07/14 09:41:42;;;;;;;0.67;0.67;;;;;;;;;;5060647;27;88952;-52
2023/07/14 09:44:11;;;;;;;2.93;1.00;;;;;;;;;;5060892;27;87636;-52
2023/07/14 09:46:44;;;;;;;0.80;0.50;;;;;;;;;;5061370;27;87391;-52
2023/07/14 09:49:19;;;;;;;1.23;0.80;;;;;;;;;;5064001;27;88095;-52
2023/07/14 09:52:01;;;;;;;1.07;0.40;;;;;;;;;;5064640;27;87789;-52
2023/07/14 09:54:29;;;;;;;0.90;0.67;;;;;;;;;;5063935;27;88051;-53
2023/07/14 09:57:01;;;;;;;1.73;0.87;;;;;;;;;;5064509;27;89843;-52
2023/07/14 09:59:29;;;;;;;0.90;0.60;;;;;;;;;;5064192;27;88104;-53
2023/07/14 10:01:58;;;;;;;0.93;0.87;;;;;;;;;;5064435;27;87297;-52
2023/07/14 10:04:29;;;;;;;0.47;0.47;;;;;;;;;;5064420;27;87609;-52
2023/07/14 10:07:03;;;;;;;2.40;0.70;;;;;;;;;;5064006;27;88547;-52
2023/07/14 10:09:32;;;;;;;1.00;0.60;;;;;;;;;;5064107;27;87411;-52
2023/07/14 10:12:03;;;;;;;2.20;0.63;;;;;;;;;;5064253;27;88148;-53
2023/07/14 10:14:35;;;;;;;1.67;0.80;;;;;;;;;;5064139;27;87514;-53
2023/07/14 10:17:04;;;;;;;0.63;0.60;;;;;;;;;;5064095;27;89827;-52
2023/07/14 10:19:39;;;;;;;2.23;1.17;;;;;;;;;;5063315;27;88696;-52
2023/07/14 10:22:12;;;;;;;0.93;0.87;;;;;;;;;;5063978;27;89035;-52
2023/07/14 10:24:41;;;;;;;1.60;0.60;;;;;;;;;;5064118;27;87533;-52
2023/07/14 10:27:09;;;;;;;3.43;1.20;;;;;;;;;;5063789;27;88763;-52
2023/07/14 10:29:46;;;;;;;0.67;0.63;;;;;;;;;;5063584;27;88230;-53
2023/07/14 10:32:16;;;;;;;1.03;0.70;;;;;;;;;;5064182;27;87715;-53
2023/07/14 10:34:49;;;;;;;0.50;0.50;;;;;;;;;;5065064;27;87240;-53
2023/07/14 10:37:21;;;;;;;0.80;0.80;;;;;;;;;;5064589;27;88612;-53
2023/07/14 10:39:51;;;;;;;0.70;0.70;;;;;;;;;;5063696;27;89007;-52
2023/07/14 10:42:21;;;;;;;1.60;0.77;;;;;;;;;;5063004;27;89118;-52
2023/07/14 10:44:50;;;;;;;3.20;0.90;;;;;;;;;;5063223;27;87872;-52
2023/07/14 10:47:19;;;;;;;1.10;0.70;;;;;;;;;;5063502;27;88543;-52
2023/07/14 10:49:49;;;;;;;3.03;1.00;;;;;;;;;;5063167;27;88062;-51
2023/07/14 10:52:19;;;;;;;0.63;0.60;;;;;;;;;;5063450;27;88924;-52
2023/07/14 10:54:50;;;;;;;0.70;0.70;;;;;;;;;;5044242;27;87714;-51
2023/07/14 10:57:28;;;;;;;0.60;0.60;;;;;;;;;;5035827;28;89616;-52
2023/07/14 10:59:58;;;;;;;0.77;0.63;;;;;;;;;;5040082;27;88139;-51
2023/07/14 11:02:30;;;;;;;0.83;0.60;;;;;;;;;;5023137;28;88743;-51
2023/07/14 11:05:03;;;;;;;4.27;0.77;;;;;;;;;;5025590;28;89731;-51
2023/07/14 11:07:32;;;;;;;0.70;0.60;;;;;;;;;;5040779;28;88536;-51
2023/07/14 11:10:01;;;;;;;1.93;0.70;;;;;;;;;;5042237;27;89123;-51
2023/07/14 11:12:31;;;;;;;1.07;0.60;;;;;;;;;;5042579;27;88638;-51
2023/07/14 11:15:01;;;;;;;1.60;0.60;;;;;;;;;;5043072;27;87602;-51
2023/07/14 11:17:32;;;;;;;7.30;0.70;;;;;;;;;;5024696;27;89702;-51
2023/07/14 11:20:08;;;;;;;0.87;0.60;;;;;;;;;;5022413;28;89151;-51
2023/07/14 11:22:45;;;;;;;1.33;0.77;;;;;;;;;;5022625;28;87303;-51
2023/07/14 11:25:15;;;;;;;3.03;0.87;;;;;;;;;;5022816;28;87477;-51
2023/07/14 11:27:46;;;;;;;1.40;1.00;;;;;;;;;;5022450;28;88643;-51
2023/07/14 11:30:15;;;;;;;1.37;0.60;;;;;;;;;;5022358;28;88094;-51
2023/07/14 11:32:47;;;;;;;4.07;1.10;;;;;;;;;;5022535;28;88965;-52
2023/07/14 11:35:24;;;;;;;1.53;0.83;;;;;;;;;;5022135;28;87671;-51
2023/07/14 11:37:56;;;;;;;4.10;1.00;;;;;;;;;;5022108;28;88706;-51
2023/07/14 11:40:24;;;;;;;0.57;0.57;;;;;;;;;;5021852;28;89100;-51
2023/07/14 11:42:54;;;;;;;1.00;0.90;;;;;;;;;;5021356;28;89026;-51
2023/07/14 11:45:22;;;;;;;1.07;0.80;;;;;;;;;;5022547;28;87644;-51
2023/07/14 11:47:51;;;;;;;2.87;0.90;;;;;;;;;;5021960;28;88500;-52
2023/07/14 11:50:28;;;;;;;10.17;1.00;;;;;;;;;;5021361;28;89103;-51
2023/07/14 11:53:19;;;;;;;1.83;0.90;;;;;;;;;;5022186;28;87508;-51
2023/07/14 11:55:48;;;;;;;10.47;1.10;;;;;;;;;;5022249;28;87511;-51
2023/07/14 11:58:20;;;;;;;1.97;1.10;;;;;;;;;;5021929;28;88625;-51
2023/07/14 12:00:49;;;;;;;4.97;1.20;;;;;;;;;;5021361;28;89096;-51
2023/07/14 12:03:25;;;;;;;3.13;1.20;;;;;;;;;;5021886;28;89806;-52
2023/07/14 12:06:22;;;;;;;2.30;1.07;;;;;;;;;;5022009;28;87186;-51
2023/07/14 12:09:00;;;;;;;8.27;1.40;;;;;;;;;;5021769;28;89790;-51
2023/07/14 12:11:29;;;;;;;4.40;1.13;;;;;;;;;;5021299;28;88151;-51
2023/07/14 12:14:23;;;;;;;3.33;1.40;;;;;;;;;;5021670;28;88663;-51
2023/07/14 12:16:52;;;;;;;3.17;1.60;;;;;;;;;;5022043;28;87575;-51
2023/07/14 12:19:22;;;;;;;2.00;0.90;;;;;;;;;;5021680;28;88568;-51
2023/07/14 12:22:02;;;;;;;5.30;1.10;;;;;;;;;;5031168;28;89157;-51
2023/07/14 12:24:31;;;;;;;2.80;1.17;;;;;;;;;;5041447;28;87695;-51
2023/07/14 12:27:14;;;;;;;1.93;1.10;;;;;;;;;;5041511;27;87798;-51
2023/07/14 12:29:42;;;;;;;3.53;1.30;;;;;;;;;;5041570;28;88531;-51
2023/07/14 12:32:25;;;;;;;1.53;0.80;;;;;;;;;;5041724;28;89159;-51
2023/07/14 12:34:53;;;;;;;3.07;1.40;;;;;;;;;;5041383;28;87462;-51
2023/07/14 12:37:23;;;;;;;4.03;1.10;;;;;;;;;;5028724;27;87218;-51
2023/07/14 12:39:52;;;;;;;6.00;1.70;;;;;;;;;;5021046;28;89407;-51
2023/07/14 12:42:21;;;;;;;2.50;1.10;;;;;;;;;;5020980;28;89102;-52
2023/07/14 12:44:52;;;;;;;2.20;1.27;;;;;;;;;;5021111;28;87285;-52
2023/07/14 12:47:21;;;;;;;3.47;1.20;;;;;;;;;;5021268;28;87474;-51
2023/07/14 12:49:51;;;;;;;3.97;0.90;;;;;;;;;;5020319;28;89662;-51
2023/07/14 12:52:25;;;;;;;2.40;0.87;;;;;;;;;;5020583;28;88466;-51
2023/07/14 12:54:57;;;;;;;1.23;0.97;;;;;;;;;;5021047;28;89234;-51
2023/07/14 12:57:26;;;;;;;0.80;0.67;;;;;;;;;;5021272;28;87484;-51
2023/07/14 12:59:54;;;;;;;1.03;0.73;;;;;;;;;;5020872;28;88230;-51
2023/07/14 13:02:24;;;;;;;4.30;1.10;;;;;;;;;;5021135;28;91789;-51
2023/07/14 13:04:52;;;;;;;1.90;0.80;;;;;;;;;;5021101;28;87884;-52
2023/07/14 13:07:21;;;;;;;2.73;1.10;;;;;;;;;;5021726;28;87636;-51
2023/07/14 13:10:00;;;;;;;5.10;1.17;;;;;;;;;;5021373;28;88553;-52
2023/07/14 13:12:28;;;;;;;2.10;1.07;;;;;;;;;;5021404;28;88166;-51
2023/07/14 13:14:56;;;;;;;3.03;1.00;;;;;;;;;;5021498;28;87764;-52
2023/07/14 13:17:25;;;;;;;2.23;0.83;;;;;;;;;;5021104;28;87912;-51
2023/07/14 13:19:54;;;;;;;1.13;0.90;;;;;;;;;;5020483;28;89620;-51
2023/07/14 13:22:23;;;;;;;1.70;1.10;;;;;;;;;;5019513;28;89235;-51
2023/07/14 13:25:00;;;;;;;1.73;1.00;;;;;;;;;;5020612;28;87438;-51
2023/07/14 13:27:30;;;;;;;0.97;0.73;;;;;;;;;;5021286;28;87487;-52
2023/07/14 13:29:58;;;;;;;2.27;1.23;;;;;;;;;;5020537;28;89605;-51
2023/07/14 13:32:27;;;;;;;1.33;0.67;;;;;;;;;;5020386;28;88133;-52
2023/07/14 13:34:57;;;;;;;2.07;1.00;;;;;;;;;;5020861;28;88823;-51
2023/07/14 13:37:26;;;;;;;1.33;0.70;;;;;;;;;;5020568;28;87657;-51
2023/07/14 13:39:55;;;;;;;1.27;0.80;;;;;;;;;;5020216;28;89619;-51
2023/07/14 13:42:24;;;;;;;0.63;0.60;;;;;;;;;;5019606;28;89155;-52
2023/07/14 13:44:54;;;;;;;2.10;0.80;;;;;;;;;;5020310;28;89863;-51
2023/07/14 13:47:23;;;;;;;1.63;1.00;;;;;;;;;;5020641;28;87732;-51
2023/07/14 13:49:52;;;;;;;1.20;0.93;;;;;;;;;;5019842;28;88501;-51
2023/07/14 13:52:21;;;;;;;1.43;0.83;;;;;;;;;;5020051;28;88358;-51
2023/07/14 13:54:54;;;;;;;2.00;1.07;;;;;;;;;;5020197;28;87741;-51
2023/07/14 13:57:23;;;;;;;3.20;1.00;;;;;;;;;;5020531;28;87564;-51
2023/07/14 13:59:51;;;;;;;1.33;0.80;;;;;;;;;;5020183;28;88744;-51
2023/07/14 14:02:26;;;;;;;2.90;1.17;;;;;;;;;;5020145;28;89249;-51
2023/07/14 14:04:55;;;;;;;1.20;0.93;;;;;;;;;;5019775;28;87745;-51
2023/07/14 14:07:23;;;;;;;1.83;1.07;;;;;;;;;;5019634;28;87954;-51
2023/07/14 14:09:51;;;;;;;2.83;1.10;;;;;;;;;;5019771;28;88582;-51
2023/07/14 14:12:20;;;;;;;2.40;0.90;;;;;;;;;;5020037;28;87464;-51
2023/07/14 14:14:48;;;;;;;2.40;1.10;;;;;;;;;;5020223;28;88577;-51
2023/07/14 14:17:22;;;;;;;0.73;0.73;;;;;;;;;;5021494;28;87658;-51
2023/07/14 14:19:51;;;;;;;1.00;0.80;;;;;;;;;;5020596;28;89590;-51
2023/07/14 14:22:20;;;;;;;1.37;1.10;;;;;;;;;;5019795;28;87595;-51
2023/07/14 14:24:48;;;;;;;2.70;1.17;;;;;;;;;;5020403;28;87301;-51
2023/07/14 14:27:17;;;;;;;4.77;1.30;;;;;;;;;;5020347;28;87509;-51
2023/07/14 14:29:45;;;;;;;1.63;1.40;;;;;;;;;;5019824;28;87404;-51
2023/07/14 14:32:15;;;;;;;1.53;1.00;;;;;;;;;;5019266;28;87964;-51
2023/07/14 14:34:44;;;;;;;2.47;1.30;;;;;;;;;;5022815;28;88647;-51
2023/07/14 14:37:14;;;;;;;4.23;1.40;;;;;;;;;;5023671;28;87763;-51
2023/07/14 14:39:42;;;;;;;2.87;1.27;;;;;;;;;;5022968;28;88714;-51
2023/07/14 14:42:14;;;;;;;2.30;1.60;;;;;;;;;;5022527;28;87534;-51
2023/07/14 14:44:43;;;;;;;1.87;1.20;;;;;;;;;;5023255;28;89119;-51
2023/07/14 14:47:14;;;;;;;1.83;1.27;;;;;;;;;;5023320;28;87632;-51
2023/07/14 14:49:42;;;;;;;3.17;1.37;;;;;;;;;;5022421;28;89873;-51
2023/07/14 14:52:10;;;;;;;1.83;1.30;;;;;;;;;;5022848;28;88160;-51
2023/07/14 14:54:40;;;;;;;1.17;1.07;;;;;;;;;;5022843;28;88599;-51
2023/07/14 14:57:10;;;;;;;1.57;1.30;;;;;;;;;;5022969;28;87907;-51
2023/07/14 14:59:38;;;;;;;1.93;1.53;;;;;;;;;;5022849;28;89407;-51